createdAt,value
2019-03-03T00:00:47.440Z,6.85
2019-03-03T00:03:17.272Z,6.77
2019-03-03T00:05:45.765Z,6.86
2019-03-03T00:08:14.328Z,6.86
2019-03-03T00:10:42.871Z,6.98
2019-03-03T00:13:11.442Z,6.90
2019-03-03T00:15:40.008Z,6.82
2019-03-03T00:18:08.479Z,6.81
2019-03-03T00:20:36.952Z,6.92
2019-03-03T00:23:05.411Z,6.84
2019-03-03T00:25:34.035Z,6.77
2019-03-03T00:28:02.640Z,6.75
2019-03-03T00:31:31.880Z,6.72
2019-03-03T00:34:00.432Z,6.73
2019-03-03T00:36:30.565Z,6.72
2019-03-03T00:42:00.330Z,6.79
2019-03-03T00:44:33.212Z,6.80
2019-03-03T00:47:12.383Z,6.78
2019-03-03T00:50:01.683Z,6.77
2019-03-03T00:52:31.815Z,6.95
2019-03-03T00:55:18.268Z,6.86
2019-03-03T00:57:51.331Z,6.87
2019-03-03T01:00:39.623Z,6.87
2019-03-03T01:03:12.735Z,6.38
2019-03-03T01:05:42.939Z,6.97
2019-03-03T01:08:15.895Z,7.04
2019-03-03T01:10:49.006Z,7.05
2019-03-03T01:13:19.390Z,7.14
2019-03-03T01:16:06.022Z,7.10
2019-03-03T01:18:41.981Z,7.09
2019-03-03T01:21:12.101Z,7.12
2019-03-03T01:23:58.115Z,7.15
2019-03-03T01:26:26.656Z,7.08
2019-03-03T01:28:55.170Z,7.03
2019-03-03T01:31:23.629Z,7.05
2019-03-03T01:33:52.189Z,7.02
2019-03-03T01:36:20.636Z,6.31
2019-03-03T01:38:49.150Z,7.17
2019-03-03T01:41:17.646Z,7.15
2019-03-03T01:43:46.118Z,7.13
2019-03-03T01:46:14.671Z,7.20
2019-03-03T01:48:43.157Z,7.21
2019-03-03T01:51:11.655Z,7.28
2019-03-03T01:53:40.313Z,7.52
2019-03-03T01:56:08.790Z,6.62
2019-03-03T01:58:37.280Z,7.37
2019-03-03T02:01:05.838Z,7.32
2019-03-03T02:03:35.568Z,7.36
2019-03-03T02:06:06.054Z,7.39
2019-03-03T02:08:34.681Z,7.33
2019-03-03T02:11:03.320Z,7.38
2019-03-03T02:13:31.808Z,7.38
2019-03-03T02:16:00.426Z,7.38
2019-03-03T02:18:28.921Z,7.43
2019-03-03T02:20:57.415Z,7.60
2019-03-03T02:23:25.917Z,7.58
2019-03-03T02:25:54.458Z,7.50
2019-03-03T02:28:22.933Z,7.48
2019-03-03T02:30:51.512Z,7.53
2019-03-03T02:33:20.062Z,7.66
2019-03-03T02:35:48.639Z,7.62
2019-03-03T02:38:17.137Z,7.62
2019-03-03T02:40:45.650Z,7.58
2019-03-03T02:43:14.211Z,7.63
2019-03-03T02:45:42.771Z,7.74
2019-03-03T02:48:11.240Z,7.68
2019-03-03T02:50:39.719Z,7.68
2019-03-03T02:53:08.200Z,7.76
2019-03-03T02:55:36.699Z,7.76
2019-03-03T02:58:05.317Z,7.82
2019-03-03T03:00:35.604Z,7.76
2019-03-03T03:03:16.258Z,7.72
2019-03-03T03:05:58.268Z,7.93
2019-03-03T03:08:28.555Z,7.84
2019-03-03T03:11:02.143Z,7.79
2019-03-03T03:13:48.471Z,7.79
2019-03-03T03:16:18.613Z,7.84
2019-03-03T03:18:58.012Z,7.87
2019-03-03T03:21:33.954Z,7.82
2019-03-03T03:24:20.834Z,7.82
2019-03-03T03:27:07.286Z,7.84
2019-03-03T03:29:49.592Z,7.96
2019-03-03T03:32:19.760Z,8.05
2019-03-03T03:34:58.688Z,7.96
2019-03-03T03:37:40.787Z,8.04
2019-03-03T03:40:12.331Z,7.93
2019-03-03T03:42:58.681Z,7.94
2019-03-03T03:45:44.986Z,7.96
2019-03-03T03:48:20.817Z,8.04
2019-03-03T03:51:00.142Z,8.18
2019-03-03T03:53:30.298Z,8.08
2019-03-03T03:56:18.606Z,8.01
2019-03-03T03:59:00.925Z,8.07
2019-03-03T04:01:43.278Z,8.08
2019-03-03T04:04:16.398Z,8.05
2019-03-03T04:06:52.544Z,8.06
2019-03-03T04:09:22.670Z,8.07
2019-03-03T04:11:52.773Z,8.25
2019-03-03T04:14:22.911Z,8.20
2019-03-03T04:16:58.981Z,8.18
2019-03-03T04:19:29.140Z,8.17
2019-03-03T04:21:59.251Z,8.17
2019-03-03T04:24:35.032Z,8.17
2019-03-03T04:27:07.754Z,8.21
2019-03-03T04:29:40.623Z,8.23
2019-03-03T04:32:16.169Z,8.24
2019-03-03T04:35:02.965Z,8.21
2019-03-03T04:37:51.225Z,8.21
2019-03-03T04:40:21.503Z,8.20
2019-03-03T04:42:51.639Z,8.23
2019-03-03T04:45:24.869Z,8.22
2019-03-03T04:48:00.670Z,7.36
2019-03-03T04:50:42.613Z,8.21
2019-03-03T04:53:18.645Z,8.23
2019-03-03T04:56:03.843Z,8.23
2019-03-03T04:58:43.072Z,8.23
2019-03-03T05:01:28.241Z,8.25
2019-03-03T05:04:12.708Z,8.27
2019-03-03T05:06:42.905Z,8.27
2019-03-03T05:09:13.046Z,8.31
2019-03-03T05:15:01.799Z,8.33
2019-03-03T05:17:41.003Z,8.30
2019-03-03T05:20:17.176Z,8.40
2019-03-03T05:22:45.716Z,8.35
2019-03-03T05:25:14.382Z,8.30
2019-03-03T05:27:42.861Z,8.29
2019-03-03T05:30:13.696Z,8.19
2019-03-03T05:32:42.138Z,8.21
2019-03-03T05:35:11.122Z,8.17
2019-03-03T05:37:40.147Z,8.22
2019-03-03T05:40:08.976Z,8.28
2019-03-03T05:42:37.517Z,8.20
2019-03-03T05:45:07.068Z,8.12
2019-03-03T05:47:35.545Z,8.10
2019-03-03T05:50:05.124Z,8.06
2019-03-03T05:52:33.632Z,8.05
2019-03-03T05:55:02.162Z,7.98
2019-03-03T05:57:30.620Z,8.01
2019-03-03T05:59:59.125Z,7.97
2019-03-03T06:02:27.622Z,7.95
2019-03-03T06:04:56.110Z,7.90
2019-03-03T06:07:24.587Z,7.87
2019-03-03T06:09:53.082Z,7.83
2019-03-03T06:12:21.561Z,7.81
2019-03-03T06:14:50.077Z,7.79
2019-03-03T06:17:18.561Z,7.77
2019-03-03T06:19:47.023Z,7.78
2019-03-03T06:22:15.495Z,7.78
2019-03-03T06:24:44.038Z,7.79
2019-03-03T06:27:12.518Z,7.76
2019-03-03T06:29:43.905Z,7.82
2019-03-03T06:32:12.394Z,7.81
2019-03-03T06:34:40.868Z,7.77
2019-03-03T06:37:09.357Z,7.80
2019-03-03T06:39:37.819Z,7.81
2019-03-03T06:42:06.301Z,7.77
2019-03-03T06:44:34.775Z,7.76
2019-03-03T06:47:03.313Z,7.73
2019-03-03T06:49:31.764Z,7.71
2019-03-03T06:52:00.279Z,7.71
2019-03-03T06:54:28.753Z,7.74
2019-03-03T06:56:57.227Z,7.74
2019-03-03T06:59:25.812Z,7.78
2019-03-03T07:01:54.290Z,7.72
2019-03-03T07:04:22.817Z,7.73
2019-03-03T07:06:51.263Z,7.73
2019-03-03T07:09:19.739Z,7.52
2019-03-03T07:11:48.211Z,7.77
2019-03-03T07:14:16.684Z,7.78
2019-03-03T07:16:45.198Z,7.78
2019-03-03T07:19:13.656Z,7.76
2019-03-03T07:21:42.254Z,7.81
2019-03-03T07:24:10.747Z,7.79
2019-03-03T07:26:40.875Z,7.88
2019-03-03T07:29:09.381Z,7.81
2019-03-03T07:31:37.835Z,7.82
2019-03-03T07:34:06.707Z,7.81
2019-03-03T07:36:35.173Z,7.83
2019-03-03T07:39:05.182Z,7.81
2019-03-03T07:41:33.643Z,7.82
2019-03-03T07:44:02.129Z,7.83
2019-03-03T07:46:30.601Z,7.76
2019-03-03T07:48:59.158Z,7.82
2019-03-03T07:51:27.626Z,7.87
2019-03-03T07:53:56.086Z,7.89
2019-03-03T07:56:24.571Z,7.88
2019-03-03T07:58:53.053Z,7.89
2019-03-03T08:01:21.541Z,7.90
2019-03-03T08:03:50.008Z,7.91
2019-03-03T08:06:18.499Z,7.92
2019-03-03T08:08:47.437Z,7.93
2019-03-03T08:11:15.992Z,7.93
2019-03-03T08:13:44.458Z,7.92
2019-03-03T08:16:12.938Z,7.94
2019-03-03T08:18:41.396Z,7.95
2019-03-03T08:21:09.866Z,7.99
2019-03-03T08:23:38.335Z,7.99
2019-03-03T08:26:06.829Z,8.00
2019-03-03T08:28:35.373Z,8.01
2019-03-03T08:31:03.879Z,8.03
2019-03-03T08:33:32.425Z,8.06
2019-03-03T08:36:00.915Z,8.08
2019-03-03T08:38:29.373Z,8.09
2019-03-03T08:40:57.943Z,8.10
2019-03-03T08:43:28.072Z,8.13
2019-03-03T08:45:58.214Z,7.75
2019-03-03T08:48:28.387Z,8.19
2019-03-03T08:50:58.506Z,8.16
2019-03-03T08:53:31.360Z,8.18
2019-03-03T08:56:04.040Z,8.22
2019-03-03T08:58:34.289Z,8.21
2019-03-03T09:01:04.377Z,8.27
2019-03-03T09:03:37.160Z,8.25
2019-03-03T09:06:07.299Z,8.28
2019-03-03T09:08:49.138Z,8.29
2019-03-03T09:11:25.248Z,8.33
2019-03-03T09:13:58.118Z,8.33
2019-03-03T09:16:31.257Z,8.32
2019-03-03T09:22:12.433Z,8.37
2019-03-03T09:24:48.433Z,8.40
2019-03-03T09:27:24.815Z,8.39
2019-03-03T09:30:09.906Z,8.39
2019-03-03T09:32:42.251Z,8.41
2019-03-03T09:35:12.583Z,8.38
2019-03-03T09:37:48.898Z,8.41
2019-03-03T09:40:19.120Z,8.44
2019-03-03T09:42:49.288Z,8.46
2019-03-03T09:45:19.551Z,8.48
2019-03-03T09:47:58.620Z,8.48
2019-03-03T09:51:00.426Z,8.52
2019-03-03T09:53:35.984Z,8.54
2019-03-03T09:56:21.277Z,8.55
2019-03-03T09:58:51.383Z,8.62
2019-03-03T10:04:36.537Z,8.61
2019-03-03T10:07:09.763Z,8.61
2019-03-03T10:09:48.819Z,8.64
2019-03-03T10:12:19.081Z,8.66
2019-03-03T10:14:57.977Z,8.69
2019-03-03T10:17:28.206Z,8.68
2019-03-03T10:20:07.136Z,8.68
2019-03-03T10:22:45.745Z,8.79
2019-03-03T10:25:24.896Z,8.79
2019-03-03T10:28:11.260Z,8.78
2019-03-03T10:30:44.445Z,8.79
2019-03-03T10:33:14.633Z,8.82
2019-03-03T10:35:47.873Z,8.82
2019-03-03T10:38:21.034Z,8.82
2019-03-03T10:41:03.461Z,8.86
2019-03-03T10:43:48.359Z,8.88
2019-03-03T10:46:24.566Z,8.89
2019-03-03T10:48:54.737Z,8.87
2019-03-03T10:51:24.970Z,8.92
2019-03-03T10:54:12.167Z,8.96
2019-03-03T10:56:45.030Z,9.02
2019-03-03T10:59:15.203Z,9.12
2019-03-03T11:01:48.329Z,9.17
2019-03-03T11:04:18.492Z,9.18
2019-03-03T11:06:48.761Z,9.13
2019-03-03T11:09:20.906Z,9.09
2019-03-03T11:11:59.699Z,9.15
2019-03-03T11:14:41.869Z,9.16
2019-03-03T11:17:24.171Z,9.25
2019-03-03T11:19:54.382Z,9.27
2019-03-03T11:22:27.844Z,9.27
2019-03-03T11:25:03.659Z,9.24
2019-03-03T11:27:49.255Z,9.20
2019-03-03T11:30:37.492Z,9.25
2019-03-03T11:33:07.050Z,9.18
2019-03-03T11:35:49.274Z,9.13
2019-03-03T11:38:28.362Z,9.15
2019-03-03T11:41:04.524Z,9.14
2019-03-03T11:43:50.068Z,9.19
2019-03-03T11:46:36.318Z,9.21
2019-03-03T11:49:09.329Z,9.28
2019-03-03T11:51:39.448Z,9.26
2019-03-03T11:54:24.625Z,9.28
2019-03-03T11:56:56.994Z,9.22
2019-03-03T11:59:30.149Z,9.19
2019-03-03T12:02:01.007Z,9.13
2019-03-03T12:07:32.598Z,9.15
2019-03-03T12:10:06.804Z,9.23
2019-03-03T12:12:53.344Z,9.18
2019-03-03T12:15:23.711Z,9.15
2019-03-03T12:17:59.910Z,9.17
2019-03-03T12:20:35.530Z,9.16
2019-03-03T12:23:20.634Z,9.12
2019-03-03T12:25:52.701Z,9.06
2019-03-03T12:28:34.968Z,9.06
2019-03-03T12:31:07.570Z,9.07
2019-03-03T12:33:41.574Z,9.09
2019-03-03T12:36:12.171Z,9.13
2019-03-03T12:38:54.371Z,9.20
2019-03-03T12:41:33.295Z,9.24
2019-03-03T12:44:03.484Z,9.32
2019-03-03T12:46:33.658Z,9.35
2019-03-03T12:49:10.159Z,9.38
2019-03-03T12:51:52.274Z,9.41
2019-03-03T12:54:38.282Z,9.42
2019-03-03T12:57:14.733Z,9.46
2019-03-03T12:59:44.852Z,9.44
2019-03-03T13:02:27.314Z,9.39
2019-03-03T13:05:00.094Z,9.44
2019-03-03T13:07:48.689Z,9.48
2019-03-03T13:10:30.894Z,9.45
2019-03-03T13:13:10.317Z,9.39
2019-03-03T13:15:49.501Z,9.32
2019-03-03T13:18:19.699Z,9.32
2019-03-03T13:20:49.809Z,9.28
2019-03-03T13:23:40.966Z,9.31
2019-03-03T13:26:22.800Z,9.29
2019-03-03T13:29:01.761Z,9.26
2019-03-03T13:31:48.031Z,9.28
2019-03-03T13:34:18.190Z,9.29
2019-03-03T13:36:54.293Z,9.29
2019-03-03T13:39:30.335Z,9.29
2019-03-03T13:42:18.353Z,9.31
2019-03-03T13:44:47.949Z,9.31
2019-03-03T13:47:16.418Z,9.36
2019-03-03T13:49:45.037Z,9.35
2019-03-03T13:52:13.781Z,9.37
2019-03-03T13:54:42.399Z,9.37
2019-03-03T13:57:11.081Z,9.32
2019-03-03T13:59:39.577Z,9.33
2019-03-03T14:02:08.402Z,9.35
2019-03-03T14:04:36.958Z,9.34
2019-03-03T14:07:06.183Z,9.36
2019-03-03T14:09:34.629Z,9.35
2019-03-03T14:12:03.249Z,9.35
2019-03-03T14:14:31.774Z,9.36
2019-03-03T14:17:00.273Z,9.36
2019-03-03T14:19:28.731Z,9.35
2019-03-03T14:21:57.418Z,9.34
2019-03-03T14:24:27.264Z,9.35
2019-03-03T14:26:55.721Z,9.33
2019-03-03T14:29:24.267Z,9.32
2019-03-03T14:31:52.802Z,9.35
2019-03-03T14:34:23.350Z,9.38
2019-03-03T14:36:51.973Z,9.39
2019-03-03T14:39:20.529Z,9.39
2019-03-03T14:41:51.408Z,9.38
2019-03-03T14:44:19.905Z,9.38
2019-03-03T14:46:48.435Z,9.39
2019-03-03T14:49:21.263Z,9.36
2019-03-03T14:51:50.311Z,9.34
2019-03-03T14:54:25.399Z,9.41
2019-03-03T14:56:53.962Z,9.41
2019-03-03T14:59:22.451Z,9.39
2019-03-03T15:01:54.867Z,9.36
2019-03-03T15:04:24.041Z,9.35
2019-03-03T15:06:52.587Z,9.32
2019-03-03T15:09:22.017Z,9.31
2019-03-03T15:11:50.645Z,8.82
2019-03-03T15:14:21.601Z,9.33
2019-03-03T15:16:51.672Z,9.33
2019-03-03T15:19:20.290Z,9.32
2019-03-03T15:21:52.769Z,9.33
2019-03-03T15:24:21.239Z,9.34
2019-03-03T15:26:49.763Z,9.45
2019-03-03T15:29:18.215Z,9.52
2019-03-03T15:31:46.798Z,9.41
2019-03-03T15:34:15.248Z,9.36
2019-03-03T15:36:44.429Z,9.39
2019-03-03T15:39:15.593Z,9.35
2019-03-03T15:41:44.069Z,9.30
2019-03-03T15:44:12.619Z,9.28
2019-03-03T15:46:41.257Z,9.28
2019-03-03T15:49:09.777Z,9.27
2019-03-03T15:51:40.828Z,9.29
2019-03-03T15:54:09.362Z,9.30
2019-03-03T15:56:37.898Z,9.28
2019-03-03T15:59:06.355Z,9.26
2019-03-03T16:01:40.664Z,9.28
2019-03-03T16:04:11.466Z,9.34
2019-03-03T16:06:39.920Z,9.28
2019-03-03T16:09:13.217Z,9.30
2019-03-03T16:11:41.686Z,9.26
2019-03-03T16:14:10.163Z,9.29
2019-03-03T16:16:45.033Z,9.26
2019-03-03T16:19:21.266Z,9.28
2019-03-03T16:21:49.898Z,9.29
2019-03-03T16:24:18.356Z,9.28
2019-03-03T16:26:47.355Z,9.24
2019-03-03T16:29:15.880Z,9.22
2019-03-03T16:31:45.908Z,9.26
2019-03-03T16:34:19.516Z,9.27
2019-03-03T16:36:49.494Z,9.24
2019-03-03T16:39:17.984Z,9.26
2019-03-03T16:41:46.672Z,9.23
2019-03-03T16:44:18.465Z,9.26
2019-03-03T16:46:46.936Z,9.27
2019-03-03T16:49:17.288Z,9.29
2019-03-03T16:51:48.266Z,9.28
2019-03-03T16:54:16.812Z,9.32
2019-03-03T16:56:45.297Z,9.36
2019-03-03T16:59:13.790Z,9.34
2019-03-03T17:01:42.375Z,9.32
2019-03-03T17:04:17.511Z,9.32
2019-03-03T17:06:46.050Z,9.32
2019-03-03T17:09:15.032Z,9.33
2019-03-03T17:11:43.594Z,9.36
2019-03-03T17:14:12.179Z,9.37
2019-03-03T17:16:40.780Z,9.35
2019-03-03T17:19:09.670Z,9.33
2019-03-03T17:21:38.140Z,9.35
2019-03-03T17:24:06.692Z,9.35
2019-03-03T17:26:36.799Z,9.39
2019-03-03T17:29:08.372Z,9.33
2019-03-03T17:31:39.978Z,9.33
2019-03-03T17:34:13.205Z,9.45
2019-03-03T17:36:38.706Z,9.38
2019-03-03T17:39:08.221Z,9.39
2019-03-03T17:41:37.249Z,9.35
2019-03-03T17:44:05.857Z,9.38
2019-03-03T17:46:34.349Z,9.48
2019-03-03T17:49:02.841Z,9.41
2019-03-03T17:51:31.416Z,9.39
2019-03-03T17:53:59.948Z,9.39
2019-03-03T17:56:30.873Z,9.38
2019-03-03T17:58:59.352Z,9.44
2019-03-03T18:01:29.593Z,9.41
2019-03-03T18:03:58.210Z,9.37
2019-03-03T18:06:26.705Z,9.47
2019-03-03T18:08:55.187Z,9.51
2019-03-03T18:11:23.768Z,9.18
2019-03-03T18:13:52.228Z,9.50
2019-03-03T18:16:20.774Z,9.44
2019-03-03T18:18:49.513Z,9.41
2019-03-03T18:21:18.015Z,9.40
2019-03-03T18:23:46.463Z,9.39
2019-03-03T18:26:18.496Z,9.48
2019-03-03T18:28:51.073Z,9.41
2019-03-03T18:31:19.625Z,9.39
2019-03-03T18:33:48.108Z,9.39
2019-03-03T18:36:16.667Z,9.45
2019-03-03T18:38:45.136Z,9.51
2019-03-03T18:41:13.672Z,9.46
2019-03-03T18:43:44.542Z,9.45
2019-03-03T18:46:13.006Z,9.41
2019-03-03T18:48:41.773Z,9.44
2019-03-03T18:51:11.581Z,9.41
2019-03-03T18:53:40.054Z,9.39
2019-03-03T18:56:08.540Z,9.45
2019-03-03T18:58:37.029Z,9.36
2019-03-03T19:01:06.396Z,9.39
2019-03-03T19:03:39.105Z,9.37
2019-03-03T19:06:09.506Z,9.34
2019-03-03T19:08:38.064Z,9.37
2019-03-03T19:11:07.871Z,9.36
2019-03-03T19:13:37.636Z,9.36
2019-03-03T19:16:06.213Z,9.51
2019-03-03T19:18:34.505Z,9.42
2019-03-03T19:21:02.977Z,9.36
2019-03-03T19:23:31.605Z,9.39
2019-03-03T19:26:00.077Z,9.37
2019-03-03T19:28:28.635Z,9.40
2019-03-03T19:30:57.288Z,9.39
2019-03-03T19:33:40.675Z,9.43
2019-03-03T19:36:09.244Z,9.40
2019-03-03T19:38:40.481Z,9.07
2019-03-03T19:41:12.055Z,9.33
2019-03-03T19:43:40.689Z,9.32
2019-03-03T19:46:10.936Z,9.32
2019-03-03T19:48:39.596Z,9.40
2019-03-03T19:51:14.781Z,9.33
2019-03-03T19:53:43.344Z,9.35
2019-03-03T19:56:13.452Z,9.33
2019-03-03T19:58:42.117Z,9.37
2019-03-03T20:01:10.841Z,9.33
2019-03-03T20:03:39.409Z,9.35
2019-03-03T20:06:07.961Z,9.32
2019-03-03T20:08:36.428Z,9.29
2019-03-03T20:11:08.157Z,9.36
2019-03-03T20:13:36.713Z,9.33
2019-03-03T20:16:05.306Z,9.32
2019-03-03T20:18:34.009Z,9.31
2019-03-03T20:21:02.631Z,9.35
2019-03-03T20:23:31.223Z,9.34
2019-03-03T20:26:00.116Z,9.36
2019-03-03T20:28:28.659Z,9.40
2019-03-03T20:30:57.478Z,9.36
2019-03-03T20:33:25.980Z,9.35
2019-03-03T20:35:54.466Z,9.33
2019-03-03T20:38:23.019Z,9.31
2019-03-03T20:40:51.483Z,9.39
2019-03-03T20:43:20.040Z,9.34
2019-03-03T20:45:53.284Z,9.31
2019-03-03T20:48:21.918Z,9.30
2019-03-03T20:50:50.799Z,9.32
2019-03-03T20:53:22.360Z,9.35
2019-03-03T20:55:50.828Z,9.30
2019-03-03T20:58:21.901Z,9.29
2019-03-03T21:00:51.703Z,9.26
2019-03-03T21:03:21.716Z,9.26
2019-03-03T21:05:50.605Z,9.23
2019-03-03T21:08:19.185Z,9.25
2019-03-03T21:10:47.972Z,9.24
2019-03-03T21:13:16.525Z,8.86
2019-03-03T21:15:45.063Z,9.26
2019-03-03T21:18:13.606Z,9.29
2019-03-03T21:20:42.298Z,9.23
2019-03-03T21:23:12.259Z,9.19
2019-03-03T21:25:43.441Z,9.18
2019-03-03T21:28:14.135Z,9.15
2019-03-03T21:30:42.615Z,9.14
2019-03-03T21:33:12.799Z,9.25
2019-03-03T21:35:41.351Z,9.13
2019-03-03T21:38:09.883Z,9.10
2019-03-03T21:40:38.441Z,9.08
2019-03-03T21:43:07.255Z,9.19
2019-03-03T21:45:37.454Z,9.10
2019-03-03T21:48:05.986Z,9.12
2019-03-03T21:51:12.416Z,9.06
2019-03-03T21:53:40.943Z,9.09
2019-03-03T21:56:09.438Z,9.07
2019-03-03T21:58:37.922Z,9.07
2019-03-03T22:01:07.854Z,9.07
2019-03-03T22:03:36.675Z,9.03
2019-03-03T22:06:05.305Z,8.99
2019-03-03T22:08:33.778Z,8.98
2019-03-03T22:11:05.499Z,8.98
2019-03-03T22:13:34.030Z,8.99
2019-03-03T22:16:02.521Z,9.07
2019-03-03T22:18:31.030Z,9.08
2019-03-03T22:20:59.579Z,9.03
2019-03-03T22:23:28.059Z,8.98
2019-03-03T22:25:56.546Z,9.01
2019-03-03T22:28:25.002Z,9.08
2019-03-03T22:30:53.698Z,9.07
2019-03-03T22:33:22.179Z,9.02
2019-03-03T22:35:50.662Z,9.00
2019-03-03T22:38:22.305Z,9.14
2019-03-03T22:40:50.783Z,9.25
2019-03-03T22:43:19.280Z,9.06
2019-03-03T22:45:47.759Z,9.09
2019-03-03T22:48:19.402Z,9.17
2019-03-03T22:50:48.272Z,9.30
2019-03-03T22:53:16.822Z,9.17
2019-03-03T22:55:45.299Z,9.05
2019-03-03T22:58:13.835Z,9.23
2019-03-03T23:01:00.644Z,9.03
2019-03-03T23:03:34.886Z,9.08
2019-03-03T23:06:06.432Z,8.99
2019-03-03T23:08:46.578Z,9.11
2019-03-03T23:11:36.312Z,9.27
2019-03-03T23:14:37.720Z,9.03
2019-03-03T23:17:24.371Z,9.01
2019-03-03T23:20:29.964Z,8.96
2019-03-03T23:23:31.725Z,8.95
2019-03-03T23:26:04.849Z,8.95
2019-03-03T23:28:33.342Z,9.03
2019-03-03T23:31:01.810Z,9.11
2019-03-03T23:33:30.315Z,9.01
2019-03-03T23:35:58.775Z,9.02
2019-03-03T23:38:27.450Z,9.12
2019-03-03T23:40:56.112Z,9.44
2019-03-03T23:43:24.602Z,9.17
2019-03-03T23:45:54.608Z,9.09
2019-03-03T23:48:23.088Z,9.10
2019-03-03T23:50:51.570Z,9.10
2019-03-03T23:53:20.077Z,9.08
2019-03-03T23:55:48.615Z,9.06
2019-03-03T23:58:17.175Z,9.10
